createdAt,value
2023-05-05T00:01:11.717Z,94.10
2023-05-05T00:03:38.723Z,94.30
2023-05-05T00:06:05.887Z,94.50
2023-05-05T00:08:33.303Z,94.00
2023-05-05T00:11:00.160Z,94.00
2023-05-05T00:13:27.002Z,94.40
2023-05-05T00:15:54.066Z,94.30
2023-05-05T00:18:21.379Z,94.60
2023-05-05T00:20:48.381Z,94.70
2023-05-05T00:23:19.099Z,94.60
2023-05-05T00:25:45.844Z,94.80
2023-05-05T00:28:14.174Z,94.60
2023-05-05T00:30:41.258Z,94.70
2023-05-05T00:33:08.077Z,95.10
2023-05-05T00:35:34.943Z,94.60
2023-05-05T00:38:01.779Z,94.60
2023-05-05T00:40:28.760Z,94.80
2023-05-05T00:42:55.751Z,94.90
2023-05-05T00:45:22.688Z,94.80
2023-05-05T00:47:51.361Z,94.80
2023-05-05T00:50:25.885Z,95.00
2023-05-05T00:52:53.826Z,95.20
2023-05-05T00:55:21.031Z,94.80
2023-05-05T00:57:48.705Z,94.80
2023-05-05T01:00:15.680Z,94.80
2023-05-05T01:02:42.547Z,94.70
2023-05-05T01:05:10.239Z,94.70
2023-05-05T01:07:43.406Z,95.10
2023-05-05T01:10:20.404Z,94.90
2023-05-05T01:12:50.605Z,95.10
2023-05-05T01:15:29.296Z,94.80
2023-05-05T01:17:59.814Z,94.60
2023-05-05T01:20:40.340Z,94.90
2023-05-05T01:23:07.649Z,94.90
2023-05-05T01:26:00.533Z,94.90
2023-05-05T01:28:56.324Z,94.80
2023-05-05T01:31:42.031Z,94.90
2023-05-05T01:34:09.776Z,94.90
2023-05-05T01:36:38.110Z,94.80
2023-05-05T01:39:06.755Z,94.80
2023-05-05T01:41:38.761Z,95.20
2023-05-05T01:44:06.325Z,95.20
2023-05-05T01:46:34.055Z,95.00
2023-05-05T01:49:00.913Z,95.00
2023-05-05T01:51:28.717Z,95.20
2023-05-05T01:53:57.680Z,95.00
2023-05-05T01:56:25.222Z,95.10
2023-05-05T01:58:53.129Z,95.00
2023-05-05T02:01:25.725Z,94.90
2023-05-05T02:03:54.246Z,95.20
2023-05-05T02:06:21.719Z,95.20
2023-05-05T02:08:49.675Z,95.20
2023-05-05T02:11:17.541Z,95.10
2023-05-05T02:13:44.981Z,95.10
2023-05-05T02:16:12.645Z,95.10
2023-05-05T02:18:40.486Z,95.00
2023-05-05T02:21:07.963Z,95.10
2023-05-05T02:23:36.322Z,95.30
2023-05-05T02:26:08.313Z,95.30
2023-05-05T02:28:44.306Z,95.20
2023-05-05T02:31:12.848Z,95.10
2023-05-05T02:33:40.364Z,94.90
2023-05-05T02:36:11.551Z,94.90
2023-05-05T02:38:41.768Z,94.90
2023-05-05T02:41:11.453Z,95.00
2023-05-05T02:43:39.613Z,95.00
2023-05-05T02:46:06.898Z,95.00
2023-05-05T02:48:33.665Z,94.90
2023-05-05T02:51:00.527Z,94.70
2023-05-05T02:53:27.795Z,95.00
2023-05-05T02:56:05.696Z,95.10
2023-05-05T02:58:41.038Z,95.10
2023-05-05T03:01:13.633Z,94.90
2023-05-05T03:03:44.859Z,94.70
2023-05-05T03:06:15.054Z,95.00
2023-05-05T03:08:49.611Z,94.90
2023-05-05T03:11:22.938Z,95.10
2023-05-05T03:13:56.224Z,95.10
2023-05-05T03:16:25.009Z,94.90
2023-05-05T03:18:52.586Z,95.10
2023-05-05T03:21:19.802Z,95.20
2023-05-05T03:23:46.590Z,95.40
2023-05-05T03:26:16.640Z,95.50
2023-05-05T03:28:43.451Z,95.80
2023-05-05T03:31:10.339Z,95.70
2023-05-05T03:33:37.080Z,95.70
2023-05-05T03:36:04.109Z,96.00
2023-05-05T03:38:30.848Z,95.80
2023-05-05T03:40:57.533Z,96.00
2023-05-05T03:43:26.293Z,96.20
2023-05-05T03:45:53.041Z,95.70
2023-05-05T03:48:19.746Z,96.00
2023-05-05T03:50:46.514Z,95.90
2023-05-05T03:53:13.241Z,95.90
2023-05-05T03:55:40.053Z,96.10
2023-05-05T03:58:07.254Z,96.30
2023-05-05T04:00:33.983Z,95.90
2023-05-05T04:03:00.913Z,96.00
2023-05-05T04:05:27.807Z,95.90
2023-05-05T04:07:54.591Z,95.50
2023-05-05T04:10:21.598Z,95.10
2023-05-05T04:12:48.499Z,94.90
2023-05-05T04:15:15.275Z,94.70
2023-05-05T04:17:42.041Z,94.50
2023-05-05T04:20:09.691Z,94.20
2023-05-05T04:22:36.915Z,94.50
2023-05-05T04:25:03.806Z,94.60
2023-05-05T04:27:30.655Z,94.70
2023-05-05T04:29:57.424Z,95.10
2023-05-05T04:32:24.173Z,94.90
2023-05-05T04:34:51.028Z,94.80
2023-05-05T04:37:17.776Z,94.80
2023-05-05T04:39:44.546Z,94.70
2023-05-05T04:42:15.606Z,94.70
2023-05-05T04:44:42.333Z,94.60
2023-05-05T04:47:09.078Z,94.80
2023-05-05T04:49:36.089Z,95.00
2023-05-05T04:52:02.905Z,95.20
2023-05-05T04:54:29.627Z,95.40
2023-05-05T04:56:56.452Z,95.30
2023-05-05T04:59:23.207Z,95.40
2023-05-05T05:01:49.974Z,95.10
2023-05-05T05:04:18.825Z,94.90
2023-05-05T05:06:46.144Z,95.10
2023-05-05T05:09:13.120Z,95.50
2023-05-05T05:11:40.094Z,95.80
2023-05-05T05:14:06.999Z,95.80
2023-05-05T05:16:33.882Z,95.60
2023-05-05T05:19:01.786Z,95.60
2023-05-05T05:21:28.742Z,95.90
2023-05-05T05:23:55.698Z,95.80
2023-05-05T05:26:22.783Z,95.80
2023-05-05T05:28:49.579Z,95.80
2023-05-05T05:31:16.304Z,95.60
2023-05-05T05:33:43.969Z,95.30
2023-05-05T05:36:10.688Z,95.70
2023-05-05T05:38:37.397Z,95.20
2023-05-05T05:41:10.315Z,95.20
2023-05-05T05:43:37.117Z,94.60
2023-05-05T05:46:03.935Z,94.70
2023-05-05T05:48:30.816Z,95.00
2023-05-05T05:50:57.564Z,95.10
2023-05-05T05:53:24.366Z,95.10
2023-05-05T05:55:51.242Z,95.10
2023-05-05T05:58:18.523Z,94.90
2023-05-05T06:00:45.434Z,95.00
2023-05-05T06:03:12.623Z,95.20
2023-05-05T06:05:39.616Z,94.70
2023-05-05T06:08:06.414Z,95.40
2023-05-05T06:10:33.492Z,94.90
2023-05-05T06:13:00.757Z,94.60
2023-05-05T06:15:27.746Z,95.10
2023-05-05T06:17:54.648Z,94.70
2023-05-05T06:20:21.479Z,95.00
2023-05-05T06:22:48.239Z,94.80
2023-05-05T06:25:15.080Z,95.10
2023-05-05T06:27:41.801Z,95.60
2023-05-05T06:30:09.750Z,95.70
2023-05-05T06:32:36.836Z,95.80
2023-05-05T06:35:03.620Z,95.90
2023-05-05T06:37:30.414Z,95.60
2023-05-05T06:39:57.393Z,96.00
2023-05-05T06:42:24.120Z,95.50
2023-05-05T06:44:50.882Z,95.50
2023-05-05T06:47:17.675Z,95.50
2023-05-05T06:49:44.408Z,95.20
2023-05-05T06:52:11.515Z,95.40
2023-05-05T06:54:38.315Z,95.40
2023-05-05T06:57:05.068Z,95.20
2023-05-05T06:59:32.516Z,95.70
2023-05-05T07:01:59.636Z,95.20
2023-05-05T07:04:26.910Z,95.50
2023-05-05T07:06:55.229Z,95.30
2023-05-05T07:09:22.123Z,95.20
2023-05-05T07:11:48.855Z,95.50
2023-05-05T07:14:15.741Z,95.20
2023-05-05T07:16:42.588Z,95.10
2023-05-05T07:19:09.331Z,95.70
2023-05-05T07:21:36.691Z,94.90
2023-05-05T07:24:03.797Z,95.00
2023-05-05T07:26:30.657Z,95.20
2023-05-05T07:28:58.719Z,95.90
2023-05-05T07:31:26.559Z,94.80
2023-05-05T07:33:53.538Z,95.00
2023-05-05T07:36:20.555Z,95.30
2023-05-05T07:38:47.634Z,95.40
2023-05-05T07:41:14.502Z,94.80
2023-05-05T07:43:44.185Z,94.80
2023-05-05T07:46:12.116Z,95.40
2023-05-05T07:48:41.596Z,95.30
2023-05-05T07:51:08.792Z,95.40
2023-05-05T07:53:35.748Z,95.50
2023-05-05T07:56:02.577Z,95.10
2023-05-05T07:58:29.358Z,95.00
2023-05-05T08:00:56.145Z,95.50
2023-05-05T08:03:24.687Z,95.10
2023-05-05T08:05:54.135Z,94.60
2023-05-05T08:08:25.090Z,95.20
2023-05-05T08:10:53.261Z,95.00
2023-05-05T08:13:20.451Z,95.30
2023-05-05T08:15:47.711Z,94.90
2023-05-05T08:18:14.632Z,94.10
2023-05-05T08:20:41.403Z,93.90
2023-05-05T08:23:08.204Z,93.40
2023-05-05T08:25:34.933Z,93.40
2023-05-05T08:28:01.704Z,92.50
2023-05-05T08:30:28.470Z,93.10
2023-05-05T08:32:55.413Z,93.70
2023-05-05T08:35:22.412Z,93.20
2023-05-05T08:37:50.687Z,93.40
2023-05-05T08:40:17.538Z,93.30
2023-05-05T08:42:47.038Z,93.60
2023-05-05T08:45:14.376Z,93.20
2023-05-05T08:47:43.300Z,92.80
2023-05-05T08:50:10.970Z,93.40
2023-05-05T08:52:41.991Z,92.50
2023-05-05T08:55:26.386Z,92.20
2023-05-05T08:57:57.058Z,91.40
2023-05-05T09:00:24.798Z,92.60
2023-05-05T09:02:52.250Z,91.80
2023-05-05T09:05:19.202Z,92.60
2023-05-05T09:07:47.306Z,92.00
2023-05-05T09:10:14.190Z,92.70
2023-05-05T09:12:41.611Z,91.90
2023-05-05T09:15:09.546Z,90.60
2023-05-05T09:17:36.797Z,91.50
2023-05-05T09:20:04.574Z,90.70
2023-05-05T09:22:36.337Z,90.60
2023-05-05T09:25:03.890Z,86.20
2023-05-05T09:27:30.775Z,84.70
2023-05-05T09:29:57.575Z,84.50
2023-05-05T09:32:25.180Z,81.20
2023-05-05T09:35:01.657Z,81.20
2023-05-05T09:37:29.321Z,81.20
2023-05-05T09:39:56.479Z,81.70
2023-05-05T09:42:23.374Z,85.10
2023-05-05T09:44:51.544Z,87.30
2023-05-05T09:47:29.101Z,88.90
2023-05-05T09:49:57.805Z,88.90
2023-05-05T09:52:24.659Z,90.70
2023-05-05T09:54:56.208Z,89.90
2023-05-05T09:57:27.489Z,91.50
2023-05-05T09:59:54.775Z,91.00
2023-05-05T10:02:21.544Z,91.80
2023-05-05T10:04:48.444Z,91.40
2023-05-05T10:07:24.945Z,91.80
2023-05-05T10:09:51.884Z,91.50
2023-05-05T10:12:18.690Z,91.70
2023-05-05T10:14:45.564Z,91.30
2023-05-05T10:17:12.681Z,90.80
2023-05-05T10:19:39.587Z,90.20
2023-05-05T10:22:08.435Z,90.10
2023-05-05T10:24:50.271Z,90.30
2023-05-05T10:27:20.521Z,89.60
2023-05-05T10:29:50.420Z,89.90
2023-05-05T10:32:52.974Z,89.10
2023-05-05T10:35:16.728Z,88.20
2023-05-05T10:37:44.657Z,90.10
2023-05-05T10:40:12.264Z,90.30
2023-05-05T10:42:40.244Z,89.50
2023-05-05T10:45:07.638Z,90.70
2023-05-05T10:47:35.621Z,90.30
2023-05-05T10:50:02.467Z,91.90
2023-05-05T10:52:42.769Z,91.40
2023-05-05T10:55:13.129Z,91.40
2023-05-05T10:57:41.105Z,90.80
2023-05-05T11:00:09.061Z,88.70
2023-05-05T11:02:36.611Z,91.30
2023-05-05T11:05:09.874Z,85.40
2023-05-05T11:07:37.048Z,88.20
2023-05-05T11:10:04.889Z,82.60
2023-05-05T11:12:32.329Z,86.10
2023-05-05T11:15:17.792Z,87.10
2023-05-05T11:17:48.197Z,86.60
2023-05-05T11:20:15.328Z,86.00
2023-05-05T11:23:00.962Z,88.90
2023-05-05T11:25:37.512Z,84.20
2023-05-05T11:28:08.543Z,80.60
2023-05-05T11:30:36.237Z,82.00
2023-05-05T11:33:21.830Z,84.50
2023-05-05T11:35:56.091Z,83.10
2023-05-05T11:38:32.291Z,80.90
2023-05-05T11:41:05.918Z,82.20
2023-05-05T11:43:33.502Z,81.70
2023-05-05T11:46:13.057Z,84.70
2023-05-05T11:48:54.925Z,85.40
2023-05-05T11:51:22.424Z,85.50
2023-05-05T11:53:49.980Z,84.50
2023-05-05T11:56:21.950Z,84.80
2023-05-05T11:58:49.212Z,87.40
2023-05-05T12:01:16.264Z,83.50
2023-05-05T12:03:45.461Z,85.90
2023-05-05T12:06:12.981Z,87.20
2023-05-05T12:08:40.803Z,86.90
2023-05-05T12:11:09.593Z,82.90
2023-05-05T12:13:36.583Z,80.90
2023-05-05T12:16:09.581Z,80.70
2023-05-05T12:18:36.454Z,78.70
2023-05-05T12:21:12.711Z,78.00
2023-05-05T12:23:39.460Z,78.10
2023-05-05T12:26:07.089Z,78.70
2023-05-05T12:28:49.165Z,80.60
2023-05-05T12:31:16.120Z,84.80
2023-05-05T12:33:43.048Z,82.30
2023-05-05T12:36:09.915Z,82.80
2023-05-05T12:38:36.724Z,86.40
2023-05-05T12:41:03.480Z,87.50
2023-05-05T12:43:31.442Z,89.30
2023-05-05T12:46:08.297Z,87.90
2023-05-05T12:48:36.031Z,85.00
2023-05-05T12:51:18.204Z,82.90
2023-05-05T12:53:45.581Z,88.00
2023-05-05T12:56:30.990Z,88.50
2023-05-05T12:58:58.040Z,90.50
2023-05-05T13:01:24.958Z,90.40
2023-05-05T13:04:11.295Z,88.50
2023-05-05T13:06:38.970Z,87.80
2023-05-05T13:09:06.314Z,89.60
2023-05-05T13:11:36.901Z,90.00
2023-05-05T13:14:04.119Z,89.60
2023-05-05T13:16:31.263Z,90.20
2023-05-05T13:18:58.255Z,90.90
2023-05-05T13:21:25.002Z,90.40
2023-05-05T13:23:51.779Z,90.40
2023-05-05T13:26:18.601Z,90.40
2023-05-05T13:28:45.690Z,90.50
2023-05-05T13:31:12.411Z,88.70
2023-05-05T13:33:39.197Z,85.20
2023-05-05T13:36:06.459Z,85.70
2023-05-05T13:38:33.402Z,88.50
2023-05-05T13:41:00.397Z,89.10
2023-05-05T13:43:27.231Z,89.50
2023-05-05T13:45:53.964Z,89.00
2023-05-05T13:48:21.115Z,89.60
2023-05-05T13:50:48.016Z,89.70
2023-05-05T13:53:14.917Z,89.80
2023-05-05T13:55:42.179Z,90.20
2023-05-05T13:58:09.230Z,90.50
2023-05-05T14:00:36.100Z,90.40
2023-05-05T14:03:02.913Z,91.80
2023-05-05T14:05:29.653Z,90.70
2023-05-05T14:07:56.502Z,91.30
2023-05-05T14:10:23.407Z,91.90
2023-05-05T14:12:50.210Z,90.60
2023-05-05T14:15:16.990Z,90.10
2023-05-05T14:17:43.764Z,89.40
2023-05-05T14:20:10.899Z,87.50
2023-05-05T14:22:37.674Z,90.00
2023-05-05T14:25:04.738Z,90.20
2023-05-05T14:27:31.599Z,91.40
2023-05-05T14:29:58.375Z,90.20
2023-05-05T14:32:25.314Z,88.50
2023-05-05T14:34:52.065Z,84.90
2023-05-05T14:37:18.818Z,82.80
2023-05-05T14:39:45.755Z,80.60
2023-05-05T14:42:12.658Z,80.60
2023-05-05T14:44:39.429Z,80.80
2023-05-05T14:47:06.227Z,81.50
2023-05-05T14:49:33.155Z,81.60
2023-05-05T14:51:59.899Z,81.30
2023-05-05T14:54:28.745Z,79.30
2023-05-05T14:56:56.304Z,79.30
2023-05-05T14:59:23.098Z,79.20
2023-05-05T15:01:49.953Z,81.10
2023-05-05T15:04:16.779Z,80.10
2023-05-05T15:06:43.530Z,79.50
2023-05-05T15:09:10.505Z,80.80
2023-05-05T15:11:37.935Z,83.00
2023-05-05T15:14:04.753Z,81.80
2023-05-05T15:16:33.841Z,84.00
2023-05-05T15:19:01.826Z,81.10
2023-05-05T15:21:28.626Z,84.50
2023-05-05T15:23:55.733Z,83.80
2023-05-05T15:26:23.923Z,82.50
2023-05-05T15:28:52.534Z,84.30
2023-05-05T15:31:19.448Z,81.50
2023-05-05T15:33:48.574Z,81.80
2023-05-05T15:36:17.093Z,80.40
2023-05-05T15:38:43.965Z,80.60
2023-05-05T15:41:10.722Z,86.20
2023-05-05T15:43:37.490Z,85.50
2023-05-05T15:46:04.352Z,86.90
2023-05-05T15:48:31.329Z,84.20
2023-05-05T15:50:58.052Z,85.60
2023-05-05T15:53:26.779Z,82.20
2023-05-05T15:55:53.559Z,80.90
2023-05-05T15:58:20.473Z,85.50
2023-05-05T16:00:47.372Z,85.80
2023-05-05T16:03:14.183Z,87.10
2023-05-05T16:05:41.828Z,85.60
2023-05-05T16:08:10.555Z,83.80
2023-05-05T16:10:37.534Z,82.00
2023-05-05T16:13:04.355Z,81.20
2023-05-05T16:15:31.184Z,81.40
2023-05-05T16:17:58.007Z,82.10
2023-05-05T16:20:24.732Z,81.40
2023-05-05T16:22:51.580Z,81.80
2023-05-05T16:25:19.827Z,83.40
2023-05-05T16:27:46.640Z,84.10
2023-05-05T16:30:15.536Z,85.60
2023-05-05T16:32:42.374Z,87.60
2023-05-05T16:35:09.455Z,83.70
2023-05-05T16:37:36.709Z,82.60
2023-05-05T16:40:05.469Z,80.90
2023-05-05T16:42:32.247Z,81.00
2023-05-05T16:44:59.001Z,80.30
2023-05-05T16:47:25.845Z,81.60
2023-05-05T16:49:52.681Z,83.60
2023-05-05T16:52:19.495Z,87.00
2023-05-05T16:54:47.958Z,88.30
2023-05-05T16:57:14.660Z,90.00
2023-05-05T16:59:41.839Z,89.00
2023-05-05T17:02:08.803Z,90.50
2023-05-05T17:04:35.600Z,90.40
2023-05-05T17:07:02.437Z,90.40
2023-05-05T17:09:29.186Z,90.30
2023-05-05T17:11:56.138Z,90.80
2023-05-05T17:14:24.415Z,90.50
2023-05-05T17:16:51.290Z,91.00
2023-05-05T17:19:18.007Z,91.20
2023-05-05T17:21:44.785Z,91.60
2023-05-05T17:24:11.529Z,91.70
2023-05-05T17:26:38.886Z,92.40
2023-05-05T17:29:05.743Z,91.50
2023-05-05T17:31:32.605Z,91.70
2023-05-05T17:33:59.367Z,92.40
2023-05-05T17:36:26.123Z,91.90
2023-05-05T17:38:52.835Z,92.10
2023-05-05T17:41:19.565Z,92.80
2023-05-05T17:43:46.346Z,92.00
2023-05-05T17:46:13.109Z,92.20
2023-05-05T17:48:39.930Z,91.80
2023-05-05T17:51:06.862Z,92.60
2023-05-05T17:53:33.558Z,92.80
2023-05-05T17:56:00.328Z,92.60
2023-05-05T17:58:27.422Z,92.90
2023-05-05T18:00:54.277Z,91.90
2023-05-05T18:03:21.106Z,93.00
2023-05-05T18:05:48.070Z,92.10
2023-05-05T18:08:14.853Z,93.20
2023-05-05T18:10:41.935Z,92.80
2023-05-05T18:13:08.879Z,93.20
2023-05-05T18:15:35.705Z,92.70
2023-05-05T18:18:02.517Z,92.30
2023-05-05T18:20:29.405Z,92.20
2023-05-05T18:22:56.199Z,92.00
2023-05-05T18:25:23.554Z,92.20
2023-05-05T18:27:50.358Z,92.10
2023-05-05T18:30:17.340Z,92.10
2023-05-05T18:32:44.175Z,92.50
2023-05-05T18:35:11.285Z,92.70
2023-05-05T18:37:38.274Z,92.60
2023-05-05T18:40:06.023Z,92.30
2023-05-05T18:42:32.847Z,92.30
2023-05-05T18:44:59.631Z,92.30
2023-05-05T18:47:26.461Z,92.20
2023-05-05T18:49:53.364Z,92.30
2023-05-05T18:52:20.128Z,92.30
2023-05-05T18:54:46.847Z,92.20
2023-05-05T18:57:13.610Z,92.40
2023-05-05T18:59:40.443Z,92.70
2023-05-05T19:02:07.982Z,92.70
2023-05-05T19:04:37.894Z,92.60
2023-05-05T19:07:05.057Z,93.30
2023-05-05T19:09:32.148Z,93.10
2023-05-05T19:11:59.133Z,93.10
2023-05-05T19:14:25.981Z,93.00
2023-05-05T19:16:53.053Z,92.90
2023-05-05T19:19:20.033Z,92.90
2023-05-05T19:21:46.805Z,92.90
2023-05-05T19:24:13.551Z,93.10
2023-05-05T19:26:40.739Z,93.30
2023-05-05T19:29:07.810Z,93.60
2023-05-05T19:31:34.690Z,93.70
2023-05-05T19:34:02.647Z,93.50
2023-05-05T19:36:32.405Z,93.60
2023-05-05T19:39:02.955Z,93.40
2023-05-05T19:41:30.855Z,93.90
2023-05-05T19:43:57.681Z,93.80
2023-05-05T19:46:27.716Z,93.30
2023-05-05T19:48:54.548Z,93.30
2023-05-05T19:51:21.379Z,93.60
2023-05-05T19:53:48.354Z,93.70
2023-05-05T19:56:15.167Z,93.80
2023-05-05T19:59:00.902Z,93.00
2023-05-05T20:01:28.341Z,93.30
2023-05-05T20:03:55.793Z,93.20
2023-05-05T20:06:23.168Z,93.40
2023-05-05T20:08:49.911Z,93.30
2023-05-05T20:11:17.137Z,93.40
2023-05-05T20:13:44.064Z,93.50
2023-05-05T20:16:10.913Z,93.20
2023-05-05T20:18:37.744Z,93.40
2023-05-05T20:21:04.731Z,93.40
2023-05-05T20:23:31.816Z,93.60
2023-05-05T20:25:58.605Z,93.60
2023-05-05T20:28:25.489Z,93.80
2023-05-05T20:30:52.296Z,93.60
2023-05-05T20:33:19.002Z,94.20
2023-05-05T20:35:45.855Z,93.80
2023-05-05T20:38:12.655Z,94.20
2023-05-05T20:40:40.117Z,93.90
2023-05-05T20:43:06.877Z,94.20
2023-05-05T20:45:33.980Z,94.10
2023-05-05T20:48:01.469Z,93.70
2023-05-05T20:50:28.371Z,93.90
2023-05-05T20:52:55.130Z,93.90
2023-05-05T20:55:21.919Z,93.80
2023-05-05T20:57:48.768Z,94.00
2023-05-05T21:00:15.646Z,94.00
2023-05-05T21:02:42.787Z,94.10
2023-05-05T21:05:09.851Z,94.00
2023-05-05T21:07:36.669Z,94.50
2023-05-05T21:10:04.242Z,93.80
2023-05-05T21:12:31.128Z,93.90
2023-05-05T21:14:58.922Z,94.30
2023-05-05T21:17:26.035Z,94.10
2023-05-05T21:19:53.094Z,94.30
2023-05-05T21:22:20.228Z,94.60
2023-05-05T21:24:47.028Z,94.10
2023-05-05T21:27:14.069Z,94.60
2023-05-05T21:29:40.944Z,94.10
2023-05-05T21:32:08.433Z,93.90
2023-05-05T21:34:35.795Z,94.20
2023-05-05T21:37:02.707Z,94.20
2023-05-05T21:39:30.680Z,94.00
2023-05-05T21:41:57.471Z,94.20
2023-05-05T21:44:25.713Z,94.10
2023-05-05T21:46:52.813Z,94.30
2023-05-05T21:49:19.740Z,94.30
2023-05-05T21:51:46.590Z,94.30
2023-05-05T21:54:13.298Z,94.40
2023-05-05T21:56:40.140Z,94.40
2023-05-05T21:59:07.073Z,94.90
2023-05-05T22:01:33.938Z,94.60
2023-05-05T22:04:01.023Z,94.40
2023-05-05T22:06:28.062Z,94.30
2023-05-05T22:08:54.878Z,94.50
2023-05-05T22:11:21.866Z,94.50
2023-05-05T22:13:48.586Z,94.60
2023-05-05T22:16:17.608Z,94.40
2023-05-05T22:18:44.719Z,94.40
2023-05-05T22:21:11.556Z,94.10
2023-05-05T22:23:39.119Z,94.50
2023-05-05T22:26:06.052Z,94.40
2023-05-05T22:28:33.075Z,94.60
2023-05-05T22:30:59.822Z,94.30
2023-05-05T22:33:27.512Z,94.10
2023-05-05T22:35:54.472Z,94.60
2023-05-05T22:38:21.215Z,94.50
2023-05-05T22:40:48.078Z,94.80
2023-05-05T22:43:14.890Z,94.90
2023-05-05T22:45:41.934Z,95.10
2023-05-05T22:48:08.807Z,95.30
2023-05-05T22:50:35.585Z,95.40
2023-05-05T22:53:02.348Z,95.20
2023-05-05T22:55:29.256Z,95.20
2023-05-05T22:57:56.067Z,95.60
2023-05-05T23:00:22.800Z,95.60
2023-05-05T23:02:49.742Z,95.50
2023-05-05T23:05:16.541Z,95.40
2023-05-05T23:07:43.326Z,95.60
2023-05-05T23:10:10.277Z,95.70
2023-05-05T23:12:37.020Z,95.30
2023-05-05T23:15:04.029Z,95.30
2023-05-05T23:17:30.962Z,96.00
2023-05-05T23:19:57.913Z,95.10
2023-05-05T23:22:24.784Z,95.50
2023-05-05T23:24:51.648Z,95.10
2023-05-05T23:27:18.464Z,95.40
2023-05-05T23:29:45.221Z,95.30
2023-05-05T23:32:12.074Z,95.00
2023-05-05T23:34:38.781Z,95.80
2023-05-05T23:37:06.467Z,95.60
2023-05-05T23:43:02.199Z,95.50
2023-05-05T23:45:28.921Z,95.40
2023-05-05T23:47:55.689Z,95.80
2023-05-05T23:50:22.410Z,95.40
2023-05-05T23:52:49.195Z,95.50
2023-05-05T23:55:15.907Z,95.60
2023-05-05T23:57:42.694Z,95.60
